sensor_id;sensor_type;location;lat;lon;timestamp;P1;durP1;ratioP1;P2;durP2;ratioP2
11604;SDS011;5858;43.076;25.626;2023-01-13T00:00:17;10.70;;;7.57;;
11604;SDS011;5858;43.076;25.626;2023-01-13T00:02:45;10.10;;;7.63;;
11604;SDS011;5858;43.076;25.626;2023-01-13T00:05:13;9.50;;;7.17;;
11604;SDS011;5858;43.076;25.626;2023-01-13T00:07:40;10.63;;;7.50;;
11604;SDS011;5858;43.076;25.626;2023-01-13T00:10:08;12.40;;;8.37;;
11604;SDS011;5858;43.076;25.626;2023-01-13T00:12:37;25.90;;;15.20;;
11604;SDS011;5858;43.076;25.626;2023-01-13T00:15:06;13.13;;;9.20;;
11604;SDS011;5858;43.076;25.626;2023-01-13T00:17:34;12.07;;;8.43;;
11604;SDS011;5858;43.076;25.626;2023-01-13T00:20:03;36.37;;;20.10;;
11604;SDS011;5858;43.076;25.626;2023-01-13T00:22:33;34.20;;;19.57;;
11604;SDS011;5858;43.076;25.626;2023-01-13T00:25:00;13.77;;;9.40;;
11604;SDS011;5858;43.076;25.626;2023-01-13T00:27:28;11.10;;;8.30;;
11604;SDS011;5858;43.076;25.626;2023-01-13T00:29:55;9.87;;;7.90;;
11604;SDS011;5858;43.076;25.626;2023-01-13T00:32:22;10.47;;;8.00;;
11604;SDS011;5858;43.076;25.626;2023-01-13T00:34:49;10.10;;;7.20;;
11604;SDS011;5858;43.076;25.626;2023-01-13T00:37:17;10.27;;;7.80;;
11604;SDS011;5858;43.076;25.626;2023-01-13T00:39:45;9.37;;;7.47;;
11604;SDS011;5858;43.076;25.626;2023-01-13T00:42:12;10.13;;;6.80;;
11604;SDS011;5858;43.076;25.626;2023-01-13T00:44:57;11.47;;;8.67;;
11604;SDS011;5858;43.076;25.626;2023-01-13T00:47:24;12.57;;;9.20;;
11604;SDS011;5858;43.076;25.626;2023-01-13T00:49:51;12.53;;;8.73;;
11604;SDS011;5858;43.076;25.626;2023-01-13T00:52:18;12.43;;;7.23;;
11604;SDS011;5858;43.076;25.626;2023-01-13T00:54:47;11.03;;;7.23;;
11604;SDS011;5858;43.076;25.626;2023-01-13T00:57:14;9.63;;;7.23;;
11604;SDS011;5858;43.076;25.626;2023-01-13T00:59:41;11.67;;;7.10;;
11604;SDS011;5858;43.076;25.626;2023-01-13T01:02:08;8.90;;;6.40;;
11604;SDS011;5858;43.076;25.626;2023-01-13T01:04:35;8.53;;;6.90;;
11604;SDS011;5858;43.076;25.626;2023-01-13T01:07:02;9.73;;;7.23;;
11604;SDS011;5858;43.076;25.626;2023-01-13T01:09:31;10.07;;;7.63;;
11604;SDS011;5858;43.076;25.626;2023-01-13T01:12:00;10.10;;;7.10;;
11604;SDS011;5858;43.076;25.626;2023-01-13T01:14:27;9.80;;;6.60;;
11604;SDS011;5858;43.076;25.626;2023-01-13T01:16:54;9.40;;;6.97;;
11604;SDS011;5858;43.076;25.626;2023-01-13T01:19:22;9.70;;;6.73;;
11604;SDS011;5858;43.076;25.626;2023-01-13T01:21:49;9.00;;;6.57;;
11604;SDS011;5858;43.076;25.626;2023-01-13T01:24:16;9.40;;;7.07;;
11604;SDS011;5858;43.076;25.626;2023-01-13T01:26:44;7.93;;;6.00;;
11604;SDS011;5858;43.076;25.626;2023-01-13T01:29:13;9.47;;;6.33;;
11604;SDS011;5858;43.076;25.626;2023-01-13T01:31:41;9.73;;;6.43;;
11604;SDS011;5858;43.076;25.626;2023-01-13T01:34:10;11.07;;;7.37;;
11604;SDS011;5858;43.076;25.626;2023-01-13T01:36:37;8.47;;;6.60;;
11604;SDS011;5858;43.076;25.626;2023-01-13T01:39:05;9.33;;;6.83;;
11604;SDS011;5858;43.076;25.626;2023-01-13T01:41:33;8.87;;;6.87;;
11604;SDS011;5858;43.076;25.626;2023-01-13T01:44:01;10.57;;;7.27;;
11604;SDS011;5858;43.076;25.626;2023-01-13T01:46:34;9.47;;;7.07;;
11604;SDS011;5858;43.076;25.626;2023-01-13T01:49:08;8.83;;;6.73;;
11604;SDS011;5858;43.076;25.626;2023-01-13T01:51:41;8.90;;;6.67;;
11604;SDS011;5858;43.076;25.626;2023-01-13T01:54:12;8.20;;;6.27;;
11604;SDS011;5858;43.076;25.626;2023-01-13T01:56:44;6.80;;;5.57;;
11604;SDS011;5858;43.076;25.626;2023-01-13T01:59:12;7.87;;;6.13;;
11604;SDS011;5858;43.076;25.626;2023-01-13T02:01:41;8.20;;;6.10;;
11604;SDS011;5858;43.076;25.626;2023-01-13T02:04:10;7.53;;;6.33;;
11604;SDS011;5858;43.076;25.626;2023-01-13T02:06:40;9.27;;;6.57;;
11604;SDS011;5858;43.076;25.626;2023-01-13T02:09:08;8.40;;;5.90;;
11604;SDS011;5858;43.076;25.626;2023-01-13T02:11:36;7.23;;;5.73;;
11604;SDS011;5858;43.076;25.626;2023-01-13T02:14:21;7.37;;;5.80;;
11604;SDS011;5858;43.076;25.626;2023-01-13T02:16:57;8.17;;;5.77;;
11604;SDS011;5858;43.076;25.626;2023-01-13T02:25:43;9.83;;;6.73;;
11604;SDS011;5858;43.076;25.626;2023-01-13T02:31:31;9.03;;;5.90;;
11604;SDS011;5858;43.076;25.626;2023-01-13T02:34:10;8.20;;;5.93;;
11604;SDS011;5858;43.076;25.626;2023-01-13T02:36:46;6.17;;;4.77;;
11604;SDS011;5858;43.076;25.626;2023-01-13T02:39:19;7.00;;;5.30;;
11604;SDS011;5858;43.076;25.626;2023-01-13T02:41:53;7.40;;;5.87;;
11604;SDS011;5858;43.076;25.626;2023-01-13T02:44:41;7.57;;;5.53;;
11604;SDS011;5858;43.076;25.626;2023-01-13T02:47:16;9.07;;;6.63;;
11604;SDS011;5858;43.076;25.626;2023-01-13T02:49:48;7.50;;;6.07;;
11604;SDS011;5858;43.076;25.626;2023-01-13T02:52:21;7.50;;;6.10;;
11604;SDS011;5858;43.076;25.626;2023-01-13T02:55:04;5.83;;;4.97;;
11604;SDS011;5858;43.076;25.626;2023-01-13T02:57:35;8.23;;;4.93;;
11604;SDS011;5858;43.076;25.626;2023-01-13T03:00:11;7.37;;;5.33;;
11604;SDS011;5858;43.076;25.626;2023-01-13T03:02:49;8.00;;;5.50;;
11604;SDS011;5858;43.076;25.626;2023-01-13T03:05:38;10.10;;;6.17;;
11604;SDS011;5858;43.076;25.626;2023-01-13T03:11:02;8.17;;;5.77;;
11604;SDS011;5858;43.076;25.626;2023-01-13T03:13:53;7.37;;;5.43;;
11604;SDS011;5858;43.076;25.626;2023-01-13T03:16:45;9.03;;;6.70;;
11604;SDS011;5858;43.076;25.626;2023-01-13T03:19:42;11.40;;;7.27;;
11604;SDS011;5858;43.076;25.626;2023-01-13T03:22:20;12.33;;;7.33;;
11604;SDS011;5858;43.076;25.626;2023-01-13T03:24:56;14.23;;;7.87;;
11604;SDS011;5858;43.076;25.626;2023-01-13T03:27:39;15.67;;;8.33;;
11604;SDS011;5858;43.076;25.626;2023-01-13T03:32:54;15.27;;;7.73;;
11604;SDS011;5858;43.076;25.626;2023-01-13T03:35:29;16.73;;;9.50;;
11604;SDS011;5858;43.076;25.626;2023-01-13T03:38:08;16.10;;;9.40;;
11604;SDS011;5858;43.076;25.626;2023-01-13T03:40:47;14.20;;;9.07;;
11604;SDS011;5858;43.076;25.626;2023-01-13T03:43:18;14.37;;;8.53;;
11604;SDS011;5858;43.076;25.626;2023-01-13T03:46:07;11.30;;;7.77;;
11604;SDS011;5858;43.076;25.626;2023-01-13T03:48:42;14.80;;;8.70;;
11604;SDS011;5858;43.076;25.626;2023-01-13T03:51:22;13.53;;;8.63;;
11604;SDS011;5858;43.076;25.626;2023-01-13T03:54:00;14.10;;;9.30;;
11604;SDS011;5858;43.076;25.626;2023-01-13T03:56:38;13.37;;;8.43;;
11604;SDS011;5858;43.076;25.626;2023-01-13T03:59:11;12.50;;;8.13;;
11604;SDS011;5858;43.076;25.626;2023-01-13T04:01:43;12.30;;;8.10;;
11604;SDS011;5858;43.076;25.626;2023-01-13T04:04:12;14.87;;;9.00;;
11604;SDS011;5858;43.076;25.626;2023-01-13T04:06:49;17.30;;;10.30;;
11604;SDS011;5858;43.076;25.626;2023-01-13T04:09:21;15.13;;;9.17;;
11604;SDS011;5858;43.076;25.626;2023-01-13T04:11:56;14.80;;;8.90;;
11604;SDS011;5858;43.076;25.626;2023-01-13T04:14:29;15.17;;;9.30;;
11604;SDS011;5858;43.076;25.626;2023-01-13T04:16:56;14.33;;;9.20;;
11604;SDS011;5858;43.076;25.626;2023-01-13T04:19:24;22.93;;;11.23;;
11604;SDS011;5858;43.076;25.626;2023-01-13T04:21:52;18.73;;;9.67;;
11604;SDS011;5858;43.076;25.626;2023-01-13T04:24:19;14.80;;;8.53;;
11604;SDS011;5858;43.076;25.626;2023-01-13T04:26:46;18.00;;;9.80;;
11604;SDS011;5858;43.076;25.626;2023-01-13T04:29:14;18.63;;;10.00;;
11604;SDS011;5858;43.076;25.626;2023-01-13T04:31:42;17.87;;;9.83;;
11604;SDS011;5858;43.076;25.626;2023-01-13T04:34:09;16.83;;;10.07;;
11604;SDS011;5858;43.076;25.626;2023-01-13T04:36:36;15.07;;;9.20;;
11604;SDS011;5858;43.076;25.626;2023-01-13T04:39:05;22.97;;;9.80;;
11604;SDS011;5858;43.076;25.626;2023-01-13T04:41:32;17.00;;;9.97;;
11604;SDS011;5858;43.076;25.626;2023-01-13T04:44:13;17.77;;;9.53;;
11604;SDS011;5858;43.076;25.626;2023-01-13T04:46:41;19.30;;;9.60;;
11604;SDS011;5858;43.076;25.626;2023-01-13T04:49:08;17.03;;;9.87;;
11604;SDS011;5858;43.076;25.626;2023-01-13T04:51:35;17.40;;;10.27;;
11604;SDS011;5858;43.076;25.626;2023-01-13T04:54:02;19.53;;;11.07;;
11604;SDS011;5858;43.076;25.626;2023-01-13T04:56:31;22.37;;;11.13;;
11604;SDS011;5858;43.076;25.626;2023-01-13T04:58:58;20.57;;;11.57;;
11604;SDS011;5858;43.076;25.626;2023-01-13T05:01:26;23.10;;;12.17;;
11604;SDS011;5858;43.076;25.626;2023-01-13T05:03:53;22.63;;;11.97;;
11604;SDS011;5858;43.076;25.626;2023-01-13T05:06:20;20.37;;;11.53;;
11604;SDS011;5858;43.076;25.626;2023-01-13T05:08:47;22.63;;;12.03;;
11604;SDS011;5858;43.076;25.626;2023-01-13T05:11:15;22.33;;;12.30;;
11604;SDS011;5858;43.076;25.626;2023-01-13T05:14:01;23.80;;;12.27;;
11604;SDS011;5858;43.076;25.626;2023-01-13T05:16:45;23.80;;;12.80;;
11604;SDS011;5858;43.076;25.626;2023-01-13T05:19:28;21.40;;;11.70;;
11604;SDS011;5858;43.076;25.626;2023-01-13T05:21:56;25.07;;;11.97;;
11604;SDS011;5858;43.076;25.626;2023-01-13T05:24:41;22.20;;;12.47;;
11604;SDS011;5858;43.076;25.626;2023-01-13T05:27:25;23.77;;;12.87;;
11604;SDS011;5858;43.076;25.626;2023-01-13T05:29:54;23.70;;;12.83;;
11604;SDS011;5858;43.076;25.626;2023-01-13T05:32:22;26.43;;;14.97;;
11604;SDS011;5858;43.076;25.626;2023-01-13T05:34:49;26.50;;;16.23;;
11604;SDS011;5858;43.076;25.626;2023-01-13T05:37:17;33.73;;;19.80;;
11604;SDS011;5858;43.076;25.626;2023-01-13T05:39:44;30.90;;;18.30;;
11604;SDS011;5858;43.076;25.626;2023-01-13T05:42:27;29.97;;;16.10;;
11604;SDS011;5858;43.076;25.626;2023-01-13T05:45:13;26.20;;;13.73;;
11604;SDS011;5858;43.076;25.626;2023-01-13T05:47:40;25.33;;;13.23;;
11604;SDS011;5858;43.076;25.626;2023-01-13T05:50:08;26.33;;;13.73;;
11604;SDS011;5858;43.076;25.626;2023-01-13T05:52:36;23.83;;;13.30;;
11604;SDS011;5858;43.076;25.626;2023-01-13T05:55:04;27.40;;;15.17;;
11604;SDS011;5858;43.076;25.626;2023-01-13T05:57:32;33.13;;;17.87;;
11604;SDS011;5858;43.076;25.626;2023-01-13T06:00:00;28.77;;;15.33;;
11604;SDS011;5858;43.076;25.626;2023-01-13T06:02:29;27.23;;;15.17;;
11604;SDS011;5858;43.076;25.626;2023-01-13T06:04:56;25.80;;;13.93;;
11604;SDS011;5858;43.076;25.626;2023-01-13T06:07:23;27.73;;;15.73;;
11604;SDS011;5858;43.076;25.626;2023-01-13T06:09:50;31.07;;;15.53;;
11604;SDS011;5858;43.076;25.626;2023-01-13T06:12:17;35.30;;;17.53;;
11604;SDS011;5858;43.076;25.626;2023-01-13T06:14:44;30.60;;;15.80;;
11604;SDS011;5858;43.076;25.626;2023-01-13T06:17:12;30.73;;;16.80;;
11604;SDS011;5858;43.076;25.626;2023-01-13T06:19:42;33.63;;;17.03;;
11604;SDS011;5858;43.076;25.626;2023-01-13T06:22:10;35.13;;;16.60;;
11604;SDS011;5858;43.076;25.626;2023-01-13T06:24:41;34.10;;;16.53;;
11604;SDS011;5858;43.076;25.626;2023-01-13T06:27:10;29.27;;;15.77;;
11604;SDS011;5858;43.076;25.626;2023-01-13T06:29:38;21.67;;;13.30;;
11604;SDS011;5858;43.076;25.626;2023-01-13T06:32:06;23.87;;;13.77;;
11604;SDS011;5858;43.076;25.626;2023-01-13T06:34:40;20.30;;;12.77;;
11604;SDS011;5858;43.076;25.626;2023-01-13T06:37:15;21.77;;;12.73;;
11604;SDS011;5858;43.076;25.626;2023-01-13T06:39:45;21.43;;;12.50;;
11604;SDS011;5858;43.076;25.626;2023-01-13T06:42:16;19.03;;;11.47;;
11604;SDS011;5858;43.076;25.626;2023-01-13T06:45:00;20.73;;;13.30;;
11604;SDS011;5858;43.076;25.626;2023-01-13T06:47:28;18.90;;;12.00;;
11604;SDS011;5858;43.076;25.626;2023-01-13T06:49:56;20.80;;;12.73;;
11604;SDS011;5858;43.076;25.626;2023-01-13T06:52:24;24.83;;;15.77;;
11604;SDS011;5858;43.076;25.626;2023-01-13T06:54:51;26.33;;;17.13;;
11604;SDS011;5858;43.076;25.626;2023-01-13T06:57:18;26.47;;;16.50;;
11604;SDS011;5858;43.076;25.626;2023-01-13T06:59:48;23.77;;;15.90;;
11604;SDS011;5858;43.076;25.626;2023-01-13T07:02:27;24.03;;;14.80;;
11604;SDS011;5858;43.076;25.626;2023-01-13T07:05:03;28.17;;;16.30;;
11604;SDS011;5858;43.076;25.626;2023-01-13T07:07:32;24.73;;;15.23;;
11604;SDS011;5858;43.076;25.626;2023-01-13T07:09:59;30.27;;;17.93;;
11604;SDS011;5858;43.076;25.626;2023-01-13T07:12:26;30.73;;;17.33;;
11604;SDS011;5858;43.076;25.626;2023-01-13T07:14:53;26.77;;;16.37;;
11604;SDS011;5858;43.076;25.626;2023-01-13T07:17:38;17.97;;;11.63;;
11604;SDS011;5858;43.076;25.626;2023-01-13T07:20:07;21.73;;;12.60;;
11604;SDS011;5858;43.076;25.626;2023-01-13T07:22:35;19.50;;;12.57;;
11604;SDS011;5858;43.076;25.626;2023-01-13T07:25:03;21.00;;;12.57;;
11604;SDS011;5858;43.076;25.626;2023-01-13T07:27:30;18.03;;;12.07;;
11604;SDS011;5858;43.076;25.626;2023-01-13T07:30:01;18.37;;;11.57;;
11604;SDS011;5858;43.076;25.626;2023-01-13T07:32:30;31.10;;;18.87;;
11604;SDS011;5858;43.076;25.626;2023-01-13T07:34:57;44.50;;;27.13;;
11604;SDS011;5858;43.076;25.626;2023-01-13T07:37:31;23.27;;;15.07;;
11604;SDS011;5858;43.076;25.626;2023-01-13T07:39:59;87.83;;;45.47;;
11604;SDS011;5858;43.076;25.626;2023-01-13T07:42:27;322.20;;;118.87;;
11604;SDS011;5858;43.076;25.626;2023-01-13T07:45:11;190.70;;;74.90;;
11604;SDS011;5858;43.076;25.626;2023-01-13T07:47:39;63.33;;;32.80;;
11604;SDS011;5858;43.076;25.626;2023-01-13T07:50:08;46.57;;;29.77;;
11604;SDS011;5858;43.076;25.626;2023-01-13T07:52:38;32.63;;;22.60;;
11604;SDS011;5858;43.076;25.626;2023-01-13T07:55:06;22.20;;;14.50;;
11604;SDS011;5858;43.076;25.626;2023-01-13T07:57:34;23.87;;;15.47;;
11604;SDS011;5858;43.076;25.626;2023-01-13T08:00:01;22.47;;;13.80;;
11604;SDS011;5858;43.076;25.626;2023-01-13T08:02:29;19.03;;;12.97;;
11604;SDS011;5858;43.076;25.626;2023-01-13T08:04:56;25.83;;;18.10;;
11604;SDS011;5858;43.076;25.626;2023-01-13T08:07:23;53.53;;;37.20;;
11604;SDS011;5858;43.076;25.626;2023-01-13T08:09:52;25.73;;;18.70;;
11604;SDS011;5858;43.076;25.626;2023-01-13T08:12:21;19.30;;;12.53;;
11604;SDS011;5858;43.076;25.626;2023-01-13T08:15:06;19.63;;;13.37;;
11604;SDS011;5858;43.076;25.626;2023-01-13T08:17:35;22.53;;;14.37;;
11604;SDS011;5858;43.076;25.626;2023-01-13T08:20:03;20.77;;;12.17;;
11604;SDS011;5858;43.076;25.626;2023-01-13T08:22:33;18.23;;;11.40;;
11604;SDS011;5858;43.076;25.626;2023-01-13T08:25:05;20.17;;;11.90;;
11604;SDS011;5858;43.076;25.626;2023-01-13T08:27:36;20.03;;;12.90;;
11604;SDS011;5858;43.076;25.626;2023-01-13T08:30:04;16.97;;;11.93;;
11604;SDS011;5858;43.076;25.626;2023-01-13T08:33:14;15.10;;;10.43;;
11604;SDS011;5858;43.076;25.626;2023-01-13T08:35:21;14.33;;;10.83;;
11604;SDS011;5858;43.076;25.626;2023-01-13T08:37:51;17.70;;;11.97;;
11604;SDS011;5858;43.076;25.626;2023-01-13T08:40:31;21.00;;;13.23;;
11604;SDS011;5858;43.076;25.626;2023-01-13T08:43:13;19.87;;;13.87;;
11604;SDS011;5858;43.076;25.626;2023-01-13T08:45:41;18.00;;;12.33;;
11604;SDS011;5858;43.076;25.626;2023-01-13T08:48:11;19.63;;;12.10;;
11604;SDS011;5858;43.076;25.626;2023-01-13T08:50:38;17.37;;;10.80;;
11604;SDS011;5858;43.076;25.626;2023-01-13T08:53:06;17.77;;;11.83;;
11604;SDS011;5858;43.076;25.626;2023-01-13T08:55:35;16.10;;;11.70;;
11604;SDS011;5858;43.076;25.626;2023-01-13T08:58:05;17.70;;;12.90;;
11604;SDS011;5858;43.076;25.626;2023-01-13T09:00:32;22.70;;;13.40;;
11604;SDS011;5858;43.076;25.626;2023-01-13T09:02:59;19.30;;;13.10;;
11604;SDS011;5858;43.076;25.626;2023-01-13T09:05:26;21.53;;;14.70;;
11604;SDS011;5858;43.076;25.626;2023-01-13T09:07:54;19.40;;;14.17;;
11604;SDS011;5858;43.076;25.626;2023-01-13T09:10:21;21.70;;;15.27;;
11604;SDS011;5858;43.076;25.626;2023-01-13T09:12:54;20.20;;;13.93;;
11604;SDS011;5858;43.076;25.626;2023-01-13T09:15:40;28.53;;;15.60;;
11604;SDS011;5858;43.076;25.626;2023-01-13T09:18:09;26.70;;;16.33;;
11604;SDS011;5858;43.076;25.626;2023-01-13T09:20:38;23.77;;;16.03;;
11604;SDS011;5858;43.076;25.626;2023-01-13T09:23:05;25.20;;;15.27;;
11604;SDS011;5858;43.076;25.626;2023-01-13T09:25:32;28.33;;;17.80;;
11604;SDS011;5858;43.076;25.626;2023-01-13T09:28:03;25.50;;;17.17;;
11604;SDS011;5858;43.076;25.626;2023-01-13T09:30:32;25.50;;;17.33;;
11604;SDS011;5858;43.076;25.626;2023-01-13T09:32:59;25.87;;;18.13;;
11604;SDS011;5858;43.076;25.626;2023-01-13T09:35:43;26.23;;;17.00;;
11604;SDS011;5858;43.076;25.626;2023-01-13T09:38:11;25.77;;;17.07;;
11604;SDS011;5858;43.076;25.626;2023-01-13T09:40:38;24.00;;;16.60;;
11604;SDS011;5858;43.076;25.626;2023-01-13T09:43:32;27.30;;;17.40;;
11604;SDS011;5858;43.076;25.626;2023-01-13T09:46:18;22.47;;;14.67;;
11604;SDS011;5858;43.076;25.626;2023-01-13T09:49:07;23.27;;;15.87;;
11604;SDS011;5858;43.076;25.626;2023-01-13T09:51:46;25.60;;;15.13;;
11604;SDS011;5858;43.076;25.626;2023-01-13T09:54:24;24.90;;;16.13;;
11604;SDS011;5858;43.076;25.626;2023-01-13T09:56:57;24.87;;;16.13;;
11604;SDS011;5858;43.076;25.626;2023-01-13T09:59:30;25.50;;;15.83;;
11604;SDS011;5858;43.076;25.626;2023-01-13T10:02:12;25.50;;;15.40;;
11604;SDS011;5858;43.076;25.626;2023-01-13T10:05:08;24.13;;;16.10;;
11604;SDS011;5858;43.076;25.626;2023-01-13T10:07:47;24.50;;;14.97;;
11604;SDS011;5858;43.076;25.626;2023-01-13T10:10:20;20.10;;;12.87;;
11604;SDS011;5858;43.076;25.626;2023-01-13T10:12:56;17.67;;;11.87;;
11604;SDS011;5858;43.076;25.626;2023-01-13T10:15:44;18.97;;;11.90;;
11604;SDS011;5858;43.076;25.626;2023-01-13T10:18:36;21.63;;;14.60;;
11604;SDS011;5858;43.076;25.626;2023-01-13T10:21:29;22.57;;;15.07;;
11604;SDS011;5858;43.076;25.626;2023-01-13T10:24:24;24.00;;;14.23;;
11604;SDS011;5858;43.076;25.626;2023-01-13T10:27:01;20.30;;;12.30;;
11604;SDS011;5858;43.076;25.626;2023-01-13T10:29:30;22.00;;;13.13;;
11604;SDS011;5858;43.076;25.626;2023-01-13T10:32:05;21.30;;;14.47;;
11604;SDS011;5858;43.076;25.626;2023-01-13T10:34:44;25.33;;;17.90;;
11604;SDS011;5858;43.076;25.626;2023-01-13T10:37:18;24.20;;;16.27;;
11604;SDS011;5858;43.076;25.626;2023-01-13T10:39:53;25.87;;;17.10;;
11604;SDS011;5858;43.076;25.626;2023-01-13T10:42:22;30.10;;;19.40;;
11604;SDS011;5858;43.076;25.626;2023-01-13T10:44:56;21.63;;;13.13;;
11604;SDS011;5858;43.076;25.626;2023-01-13T10:47:42;20.73;;;14.00;;
11604;SDS011;5858;43.076;25.626;2023-01-13T10:50:24;20.33;;;13.77;;
11604;SDS011;5858;43.076;25.626;2023-01-13T10:53:23;20.40;;;13.93;;
11604;SDS011;5858;43.076;25.626;2023-01-13T10:59:27;21.00;;;13.53;;
11604;SDS011;5858;43.076;25.626;2023-01-13T11:15:21;19.27;;;13.17;;
11604;SDS011;5858;43.076;25.626;2023-01-13T11:18:23;21.13;;;12.63;;
11604;SDS011;5858;43.076;25.626;2023-01-13T11:20:58;18.43;;;12.80;;
11604;SDS011;5858;43.076;25.626;2023-01-13T11:23:38;19.23;;;13.07;;
11604;SDS011;5858;43.076;25.626;2023-01-13T11:26:22;18.47;;;13.50;;
11604;SDS011;5858;43.076;25.626;2023-01-13T11:29:10;18.90;;;14.10;;
11604;SDS011;5858;43.076;25.626;2023-01-13T11:31:54;25.30;;;15.90;;
11604;SDS011;5858;43.076;25.626;2023-01-13T11:34:30;20.83;;;13.67;;
11604;SDS011;5858;43.076;25.626;2023-01-13T11:37:01;16.53;;;12.57;;
11604;SDS011;5858;43.076;25.626;2023-01-13T11:39:40;19.30;;;12.67;;
11604;SDS011;5858;43.076;25.626;2023-01-13T11:42:16;16.77;;;12.63;;
11604;SDS011;5858;43.076;25.626;2023-01-13T11:44:52;19.30;;;13.40;;
11604;SDS011;5858;43.076;25.626;2023-01-13T11:47:28;18.57;;;12.27;;
11604;SDS011;5858;43.076;25.626;2023-01-13T11:49:57;14.43;;;11.10;;
11604;SDS011;5858;43.076;25.626;2023-01-13T11:52:26;15.17;;;11.57;;
11604;SDS011;5858;43.076;25.626;2023-01-13T12:04:25;17.57;;;10.80;;
11604;SDS011;5858;43.076;25.626;2023-01-13T12:07:01;14.57;;;11.30;;
11604;SDS011;5858;43.076;25.626;2023-01-13T12:09:43;14.83;;;11.60;;
11604;SDS011;5858;43.076;25.626;2023-01-13T12:12:22;19.50;;;12.70;;
11604;SDS011;5858;43.076;25.626;2023-01-13T12:15:12;14.57;;;11.17;;
11604;SDS011;5858;43.076;25.626;2023-01-13T12:18:18;15.87;;;11.13;;
11604;SDS011;5858;43.076;25.626;2023-01-13T12:21:11;13.27;;;10.87;;
11604;SDS011;5858;43.076;25.626;2023-01-13T12:23:46;14.73;;;10.87;;
11604;SDS011;5858;43.076;25.626;2023-01-13T12:26:21;13.50;;;10.20;;
11604;SDS011;5858;43.076;25.626;2023-01-13T12:28:50;15.03;;;11.17;;
11604;SDS011;5858;43.076;25.626;2023-01-13T12:31:22;14.40;;;10.70;;
11604;SDS011;5858;43.076;25.626;2023-01-13T12:33:55;15.60;;;10.97;;
11604;SDS011;5858;43.076;25.626;2023-01-13T12:36:36;15.07;;;11.93;;
11604;SDS011;5858;43.076;25.626;2023-01-13T12:39:12;16.07;;;11.93;;
11604;SDS011;5858;43.076;25.626;2023-01-13T12:41:50;15.90;;;11.03;;
11604;SDS011;5858;43.076;25.626;2023-01-13T12:50:55;19.00;;;11.80;;
11604;SDS011;5858;43.076;25.626;2023-01-13T12:53:31;15.87;;;11.97;;
11604;SDS011;5858;43.076;25.626;2023-01-13T13:17:40;21.40;;;13.40;;
11604;SDS011;5858;43.076;25.626;2023-01-13T13:26:34;18.47;;;13.27;;
11604;SDS011;5858;43.076;25.626;2023-01-13T13:35:25;20.53;;;14.30;;
11604;SDS011;5858;43.076;25.626;2023-01-13T13:38:18;19.47;;;13.53;;
11604;SDS011;5858;43.076;25.626;2023-01-13T13:41:15;17.27;;;12.97;;
11604;SDS011;5858;43.076;25.626;2023-01-13T13:44:09;18.93;;;12.47;;
11604;SDS011;5858;43.076;25.626;2023-01-13T13:46:57;19.53;;;12.83;;
11604;SDS011;5858;43.076;25.626;2023-01-13T13:49:37;22.03;;;14.77;;
11604;SDS011;5858;43.076;25.626;2023-01-13T13:52:07;16.93;;;12.93;;
11604;SDS011;5858;43.076;25.626;2023-01-13T13:54:40;13.20;;;9.63;;
11604;SDS011;5858;43.076;25.626;2023-01-13T13:57:15;13.83;;;8.90;;
11604;SDS011;5858;43.076;25.626;2023-01-13T13:59:45;11.53;;;9.47;;
11604;SDS011;5858;43.076;25.626;2023-01-13T14:02:17;14.13;;;10.23;;
11604;SDS011;5858;43.076;25.626;2023-01-13T14:04:49;15.73;;;10.60;;
11604;SDS011;5858;43.076;25.626;2023-01-13T14:07:17;12.87;;;9.30;;
11604;SDS011;5858;43.076;25.626;2023-01-13T14:09:47;12.67;;;9.70;;
11604;SDS011;5858;43.076;25.626;2023-01-13T14:12:18;16.93;;;12.00;;
11604;SDS011;5858;43.076;25.626;2023-01-13T14:14:48;27.90;;;17.20;;
11604;SDS011;5858;43.076;25.626;2023-01-13T14:17:19;17.57;;;13.60;;
11604;SDS011;5858;43.076;25.626;2023-01-13T14:19:49;23.23;;;15.63;;
11604;SDS011;5858;43.076;25.626;2023-01-13T14:22:18;22.90;;;17.07;;
11604;SDS011;5858;43.076;25.626;2023-01-13T14:24:46;23.70;;;15.70;;
11604;SDS011;5858;43.076;25.626;2023-01-13T14:27:20;21.63;;;14.00;;
11604;SDS011;5858;43.076;25.626;2023-01-13T14:29:49;22.63;;;16.13;;
11604;SDS011;5858;43.076;25.626;2023-01-13T14:32:19;23.40;;;16.37;;
11604;SDS011;5858;43.076;25.626;2023-01-13T14:34:50;24.47;;;16.77;;
11604;SDS011;5858;43.076;25.626;2023-01-13T14:37:21;24.23;;;15.73;;
11604;SDS011;5858;43.076;25.626;2023-01-13T14:39:51;23.30;;;16.20;;
11604;SDS011;5858;43.076;25.626;2023-01-13T14:42:18;25.90;;;17.60;;
11604;SDS011;5858;43.076;25.626;2023-01-13T14:44:46;25.33;;;17.83;;
11604;SDS011;5858;43.076;25.626;2023-01-13T14:47:18;25.20;;;16.90;;
11604;SDS011;5858;43.076;25.626;2023-01-13T14:49:50;24.57;;;17.83;;
11604;SDS011;5858;43.076;25.626;2023-01-13T14:52:25;21.60;;;16.00;;
11604;SDS011;5858;43.076;25.626;2023-01-13T14:55:09;25.17;;;17.23;;
11604;SDS011;5858;43.076;25.626;2023-01-13T14:57:46;26.63;;;17.83;;
11604;SDS011;5858;43.076;25.626;2023-01-13T15:00:18;28.73;;;19.53;;
11604;SDS011;5858;43.076;25.626;2023-01-13T15:02:58;25.37;;;17.67;;
11604;SDS011;5858;43.076;25.626;2023-01-13T15:08:24;21.87;;;14.77;;
11604;SDS011;5858;43.076;25.626;2023-01-13T15:10:57;21.37;;;15.27;;
11604;SDS011;5858;43.076;25.626;2023-01-13T15:13:30;23.43;;;15.93;;
11604;SDS011;5858;43.076;25.626;2023-01-13T15:16:02;25.90;;;18.30;;
11604;SDS011;5858;43.076;25.626;2023-01-13T15:18:32;27.37;;;17.33;;
11604;SDS011;5858;43.076;25.626;2023-01-13T15:21:04;25.50;;;18.17;;
11604;SDS011;5858;43.076;25.626;2023-01-13T15:23:31;21.73;;;14.73;;
11604;SDS011;5858;43.076;25.626;2023-01-13T15:25:59;23.07;;;16.30;;
11604;SDS011;5858;43.076;25.626;2023-01-13T15:28:27;29.30;;;19.03;;
11604;SDS011;5858;43.076;25.626;2023-01-13T15:30:56;25.77;;;18.20;;
11604;SDS011;5858;43.076;25.626;2023-01-13T15:33:25;29.00;;;18.47;;
11604;SDS011;5858;43.076;25.626;2023-01-13T15:35:54;25.67;;;17.40;;
11604;SDS011;5858;43.076;25.626;2023-01-13T15:38:22;18.83;;;13.67;;
11604;SDS011;5858;43.076;25.626;2023-01-13T15:40:50;21.10;;;14.33;;
11604;SDS011;5858;43.076;25.626;2023-01-13T15:43:19;19.17;;;14.87;;
11604;SDS011;5858;43.076;25.626;2023-01-13T15:46:08;21.83;;;14.77;;
11604;SDS011;5858;43.076;25.626;2023-01-13T15:48:55;24.33;;;16.43;;
11604;SDS011;5858;43.076;25.626;2023-01-13T15:51:24;22.63;;;16.23;;
11604;SDS011;5858;43.076;25.626;2023-01-13T15:53:51;24.67;;;15.80;;
11604;SDS011;5858;43.076;25.626;2023-01-13T15:56:19;23.57;;;15.73;;
11604;SDS011;5858;43.076;25.626;2023-01-13T15:58:51;18.77;;;13.80;;
11604;SDS011;5858;43.076;25.626;2023-01-13T16:01:18;19.77;;;15.03;;
11604;SDS011;5858;43.076;25.626;2023-01-13T16:03:46;21.23;;;15.70;;
11604;SDS011;5858;43.076;25.626;2023-01-13T16:06:15;22.97;;;15.47;;
11604;SDS011;5858;43.076;25.626;2023-01-13T16:08:45;19.07;;;14.53;;
11604;SDS011;5858;43.076;25.626;2023-01-13T16:11:13;22.43;;;15.53;;
11604;SDS011;5858;43.076;25.626;2023-01-13T16:13:40;21.33;;;14.77;;
11604;SDS011;5858;43.076;25.626;2023-01-13T16:16:12;27.23;;;17.60;;
11604;SDS011;5858;43.076;25.626;2023-01-13T16:18:44;25.60;;;17.43;;
11604;SDS011;5858;43.076;25.626;2023-01-13T16:21:12;28.70;;;16.93;;
11604;SDS011;5858;43.076;25.626;2023-01-13T16:23:40;26.87;;;19.50;;